createdAt,value
2022-10-16T00:01:19.710Z,100695.00
2022-10-16T00:03:48.457Z,100708.38
2022-10-16T00:06:17.703Z,100698.94
2022-10-16T00:08:45.711Z,100697.28
2022-10-16T00:11:16.582Z,100692.97
2022-10-16T00:13:45.650Z,100702.84
2022-10-16T00:16:15.341Z,100704.47
2022-10-16T00:18:44.127Z,100703.03
2022-10-16T00:21:13.366Z,100700.34
2022-10-16T00:23:41.700Z,100711.28
2022-10-16T00:26:11.755Z,100711.69
2022-10-16T00:28:39.616Z,100709.19
2022-10-16T00:31:08.650Z,100710.03
2022-10-16T00:33:39.485Z,100719.28
2022-10-16T00:36:08.415Z,100719.28
2022-10-16T00:38:36.213Z,100726.69
2022-10-16T00:41:03.733Z,100729.38
2022-10-16T00:43:37.913Z,100719.69
2022-10-16T00:46:10.197Z,100728.53
2022-10-16T00:48:39.209Z,100724.03
2022-10-16T00:51:08.425Z,100726.69
2022-10-16T00:53:36.722Z,100716.19
2022-10-16T00:56:04.471Z,100722.38
2022-10-16T00:58:32.087Z,100723.38
2022-10-16T01:00:59.645Z,100725.88
2022-10-16T01:03:30.497Z,100726.88
2022-10-16T01:06:20.624Z,100727.91
2022-10-16T01:09:16.990Z,100729.78
2022-10-16T01:11:56.305Z,100728.94
2022-10-16T01:14:29.286Z,100723.59
2022-10-16T01:17:02.244Z,100718.25
2022-10-16T01:19:44.130Z,100725.44
2022-10-16T01:22:13.501Z,100724.63
2022-10-16T01:24:42.838Z,100721.94
2022-10-16T01:27:17.068Z,100722.16
2022-10-16T01:29:53.953Z,100734.69
2022-10-16T01:32:27.060Z,100724.84
2022-10-16T01:34:59.573Z,100729.38
2022-10-16T01:37:35.342Z,100732.44
2022-10-16T01:40:07.162Z,100730.78
2022-10-16T01:42:40.958Z,100723.59
2022-10-16T01:45:09.397Z,100732.63
2022-10-16T01:47:38.405Z,100726.47
2022-10-16T01:50:07.415Z,100724.84
2022-10-16T01:52:38.251Z,100720.50
2022-10-16T01:55:08.802Z,100725.25
2022-10-16T01:57:40.613Z,100719.91
2022-10-16T02:00:13.225Z,100720.09
2022-10-16T02:02:43.240Z,100718.66
2022-10-16T02:05:18.202Z,100718.66
2022-10-16T02:07:46.009Z,100723.56
2022-10-16T02:10:13.570Z,100722.78
2022-10-16T02:12:46.470Z,100721.97
2022-10-16T02:15:14.024Z,100717.81
2022-10-16T02:17:41.594Z,100719.00
2022-10-16T02:20:09.977Z,100720.25
2022-10-16T02:22:41.122Z,100727.66
2022-10-16T02:25:12.221Z,100728.25
2022-10-16T02:27:47.446Z,100734.81
2022-10-16T02:30:21.166Z,100738.72
2022-10-16T02:32:50.756Z,100739.75
2022-10-16T02:35:20.614Z,100734.63
2022-10-16T02:37:48.946Z,100728.66
2022-10-16T02:40:19.319Z,100721.88
2022-10-16T02:42:52.758Z,100724.75
2022-10-16T02:45:20.942Z,100724.13
2022-10-16T02:47:48.526Z,100725.56
2022-10-16T02:50:16.415Z,100728.44
2022-10-16T02:52:44.013Z,100728.84
2022-10-16T02:55:11.540Z,100724.31
2022-10-16T02:57:41.150Z,100732.53
2022-10-16T03:00:13.375Z,100730.03
2022-10-16T03:02:41.083Z,100741.75
2022-10-16T03:05:09.881Z,100743.59
2022-10-16T03:07:37.630Z,100738.44
2022-10-16T03:10:05.851Z,100740.31
2022-10-16T03:12:33.627Z,100745.03
2022-10-16T03:15:01.653Z,100739.91
2022-10-16T03:17:30.594Z,100736.59
2022-10-16T03:19:58.130Z,100741.31
2022-10-16T03:22:25.774Z,100751.16
2022-10-16T03:24:53.656Z,100739.88
2022-10-16T03:27:21.169Z,100737.38
2022-10-16T03:29:48.713Z,100739.66
2022-10-16T03:32:16.246Z,100746.00
2022-10-16T03:34:45.114Z,100746.19
2022-10-16T03:37:12.746Z,100730.41
2022-10-16T03:39:40.331Z,100734.28
2022-10-16T03:42:07.958Z,100745.97
2022-10-16T03:44:35.481Z,100736.53
2022-10-16T03:47:03.005Z,100740.22
2022-10-16T03:49:30.526Z,100736.75
2022-10-16T03:51:59.430Z,100736.09
2022-10-16T03:54:27.090Z,100737.94
2022-10-16T03:56:54.613Z,100742.66
2022-10-16T03:59:22.250Z,100747.38
2022-10-16T04:01:49.822Z,100744.72
2022-10-16T04:04:17.349Z,100751.06
2022-10-16T04:06:44.879Z,100747.56
2022-10-16T04:09:13.934Z,100756.59
2022-10-16T04:11:41.547Z,100761.94
2022-10-16T04:14:09.107Z,100766.44
2022-10-16T04:16:36.673Z,100767.28
2022-10-16T04:19:04.763Z,100756.59
2022-10-16T04:21:32.317Z,100762.13
2022-10-16T04:23:59.836Z,100770.13
2022-10-16T04:26:28.745Z,100763.97
2022-10-16T04:28:56.547Z,100759.47
2022-10-16T04:31:24.239Z,100764.63
2022-10-16T04:33:51.777Z,100769.13
2022-10-16T04:36:19.305Z,100771.78
2022-10-16T04:38:46.854Z,100776.28
2022-10-16T04:41:14.491Z,100780.63
2022-10-16T04:43:43.378Z,100786.75
2022-10-16T04:46:11.246Z,100792.09
2022-10-16T04:48:38.770Z,100786.75
2022-10-16T04:51:06.710Z,100793.75
2022-10-16T04:53:34.360Z,100783.91
2022-10-16T04:56:01.908Z,100792.75
2022-10-16T04:58:29.518Z,100791.09
2022-10-16T05:00:58.398Z,100791.91
2022-10-16T05:03:25.966Z,100789.03
2022-10-16T05:05:53.679Z,100799.91
2022-10-16T05:08:21.558Z,100810.75
2022-10-16T05:10:49.065Z,100801.97
2022-10-16T05:13:16.662Z,100816.94
2022-10-16T05:15:44.201Z,100821.03
2022-10-16T05:18:13.137Z,100817.97
2022-10-16T05:20:40.661Z,100820.25
2022-10-16T05:23:08.269Z,100823.38
2022-10-16T05:25:35.845Z,100822.13
2022-10-16T05:28:03.610Z,100815.41
2022-10-16T05:30:31.222Z,100822.19
2022-10-16T05:32:58.785Z,100827.72
2022-10-16T05:35:27.674Z,100824.50
2022-10-16T05:37:55.209Z,100814.03
2022-10-16T05:40:23.097Z,100814.28
2022-10-16T05:42:50.654Z,100824.56
2022-10-16T05:45:18.315Z,100818.81
2022-10-16T05:47:45.834Z,100812.25
2022-10-16T05:50:13.373Z,100802.41
2022-10-16T05:52:42.314Z,100807.75
2022-10-16T05:55:10.397Z,100813.09
2022-10-16T05:57:37.935Z,100813.09
2022-10-16T06:00:06.596Z,100813.09
2022-10-16T06:02:34.118Z,100815.75
2022-10-16T06:05:01.655Z,100820.69
2022-10-16T06:07:29.465Z,100822.31
2022-10-16T06:09:58.486Z,100830.94
2022-10-16T06:12:25.989Z,100820.06
2022-10-16T06:14:53.542Z,100832.19
2022-10-16T06:17:21.074Z,100830.13
2022-10-16T06:19:48.601Z,100844.13
2022-10-16T06:22:16.967Z,100840.41
2022-10-16T06:24:44.489Z,100848.03
2022-10-16T06:27:13.698Z,100846.84
2022-10-16T06:29:41.456Z,100851.56
2022-10-16T06:32:08.977Z,100852.63
2022-10-16T06:34:37.623Z,100844.84
2022-10-16T06:37:05.190Z,100859.66
2022-10-16T06:39:33.206Z,100865.41
2022-10-16T06:44:34.666Z,100866.03
2022-10-16T06:47:02.272Z,100871.16
2022-10-16T06:49:29.825Z,100859.47
2022-10-16T06:51:57.376Z,100865.66
2022-10-16T06:54:24.958Z,100871.22
2022-10-16T06:56:55.018Z,100876.59
2022-10-16T06:59:22.619Z,100869.00
2022-10-16T07:01:51.609Z,100873.31
2022-10-16T07:04:19.281Z,100874.97
2022-10-16T07:06:46.838Z,100877.59
2022-10-16T07:09:14.491Z,100880.88
2022-10-16T07:11:42.728Z,100880.59
2022-10-16T07:14:18.007Z,100883.06
2022-10-16T07:16:45.577Z,100887.97
2022-10-16T07:19:15.913Z,100884.66
2022-10-16T07:21:43.979Z,100899.00
2022-10-16T07:24:15.118Z,100896.72
2022-10-16T07:26:44.629Z,100889.50
2022-10-16T07:29:16.220Z,100896.44
2022-10-16T07:31:43.982Z,100898.03
2022-10-16T07:34:11.945Z,100893.47
2022-10-16T07:36:43.826Z,100893.03
2022-10-16T07:39:11.398Z,100883.63
2022-10-16T07:41:38.946Z,100879.03
2022-10-16T07:44:07.481Z,100882.91
2022-10-16T07:46:36.769Z,100868.25
2022-10-16T07:49:04.685Z,100885.16
2022-10-16T07:51:32.231Z,100898.34
2022-10-16T07:54:01.134Z,100892.34
2022-10-16T07:56:28.658Z,100900.16
2022-10-16T07:58:57.198Z,100910.06
2022-10-16T08:01:26.424Z,100907.25
2022-10-16T08:03:54.664Z,100920.59
2022-10-16T08:06:26.971Z,100918.94
2022-10-16T08:08:56.331Z,100915.56
2022-10-16T08:11:25.495Z,100923.63
2022-10-16T08:13:53.076Z,100915.53
2022-10-16T08:16:20.706Z,100920.03
2022-10-16T08:18:48.302Z,100915.44
2022-10-16T08:21:21.108Z,100918.69
2022-10-16T08:23:54.478Z,100928.50
2022-10-16T08:26:27.824Z,100945.75
2022-10-16T08:28:56.061Z,100943.16
2022-10-16T08:31:24.303Z,100947.25
2022-10-16T08:33:53.092Z,100956.91
2022-10-16T08:36:20.646Z,100951.63
2022-10-16T08:38:50.258Z,100956.56
2022-10-16T08:41:50.070Z,100960.22
2022-10-16T08:44:59.244Z,100959.19
2022-10-16T08:47:37.082Z,100954.41
2022-10-16T08:50:12.215Z,100966.09
2022-10-16T08:52:43.818Z,100977.03
2022-10-16T08:55:31.268Z,100976.78
2022-10-16T08:58:00.918Z,100973.31
2022-10-16T09:00:29.641Z,100979.91
2022-10-16T09:03:06.495Z,100986.78
2022-10-16T09:05:51.434Z,100990.28
2022-10-16T09:08:25.970Z,100985.34
2022-10-16T09:10:59.943Z,100999.38
2022-10-16T09:13:34.478Z,100999.00
2022-10-16T09:16:16.807Z,100983.69
2022-10-16T09:18:53.914Z,100993.16
2022-10-16T09:21:25.258Z,101002.97
2022-10-16T09:23:53.215Z,101006.34
2022-10-16T09:28:54.494Z,100999.34
2022-10-16T09:31:23.645Z,101012.63
2022-10-16T09:33:55.357Z,101010.41
2022-10-16T09:36:25.703Z,100997.94
2022-10-16T09:39:04.951Z,101012.78
2022-10-16T09:41:32.893Z,101008.81
2022-10-16T09:44:03.090Z,101021.94
2022-10-16T09:46:32.458Z,101030.25
2022-10-16T09:49:02.258Z,101027.50
2022-10-16T09:51:31.394Z,101032.81
2022-10-16T09:54:01.656Z,101031.50
2022-10-16T09:56:31.063Z,101032.31
2022-10-16T09:59:00.558Z,101049.13
2022-10-16T10:01:33.662Z,101047.34
2022-10-16T10:04:03.781Z,101044.88
2022-10-16T10:06:35.143Z,101051.94
2022-10-16T10:09:07.723Z,101051.31
2022-10-16T10:11:44.242Z,101053.34
2022-10-16T10:14:19.643Z,101071.50
2022-10-16T10:16:49.614Z,101067.88
2022-10-16T10:19:18.821Z,101062.97
2022-10-16T10:21:46.461Z,101074.09
2022-10-16T10:24:15.741Z,101075.44
2022-10-16T10:26:53.445Z,101081.72
2022-10-16T10:29:30.641Z,101082.88
2022-10-16T10:32:09.547Z,101093.19
2022-10-16T10:34:58.909Z,101084.88
2022-10-16T10:37:43.091Z,101095.41
2022-10-16T10:40:36.602Z,101085.97
2022-10-16T10:43:11.770Z,101087.25
2022-10-16T10:45:44.903Z,101094.88
2022-10-16T10:48:32.031Z,101100.03
2022-10-16T10:51:06.194Z,101097.06
2022-10-16T10:53:46.474Z,101104.81
2022-10-16T10:56:24.903Z,101111.13
2022-10-16T10:59:21.413Z,101113.50
2022-10-16T11:01:56.630Z,101110.97
2022-10-16T11:04:42.365Z,101107.06
2022-10-16T11:07:18.495Z,101112.81
2022-10-16T11:09:49.678Z,101135.94
2022-10-16T11:12:20.931Z,101121.09
2022-10-16T11:14:56.361Z,101147.94
2022-10-16T11:17:30.314Z,101133.72
2022-10-16T11:20:03.496Z,101131.50
2022-10-16T11:22:35.964Z,101128.19
2022-10-16T11:25:14.498Z,101142.50
2022-10-16T11:27:45.876Z,101137.25
2022-10-16T11:30:21.871Z,101127.03
2022-10-16T11:33:12.389Z,101126.47
2022-10-16T11:35:46.254Z,101135.63
2022-10-16T11:38:27.936Z,101138.88
2022-10-16T11:40:59.998Z,101148.69
2022-10-16T11:43:32.202Z,101160.38
2022-10-16T11:46:06.488Z,101167.72
2022-10-16T11:48:43.309Z,101173.00
2022-10-16T11:51:17.982Z,101177.34
2022-10-16T11:53:53.377Z,101172.94
2022-10-16T11:56:23.204Z,101190.03
2022-10-16T11:58:58.515Z,101191.50
2022-10-16T12:01:32.467Z,101190.56
2022-10-16T12:04:21.879Z,101193.66
2022-10-16T12:06:56.838Z,101202.75
2022-10-16T12:09:28.042Z,101215.66
2022-10-16T12:11:56.020Z,101215.53
2022-10-16T12:14:51.749Z,101205.91
2022-10-16T12:17:27.830Z,101227.94
2022-10-16T12:20:03.436Z,101225.94
2022-10-16T12:22:36.867Z,101224.19
2022-10-16T12:25:07.692Z,101233.69
2022-10-16T12:27:36.521Z,101219.22
2022-10-16T12:30:06.793Z,101227.16
2022-10-16T12:32:51.742Z,101237.38
2022-10-16T12:35:22.773Z,101244.97
2022-10-16T12:37:52.719Z,101240.78
2022-10-16T12:40:30.370Z,101238.19
2022-10-16T12:42:58.139Z,101258.59
2022-10-16T12:45:29.710Z,101265.59
2022-10-16T12:47:58.430Z,101255.81
2022-10-16T12:50:31.590Z,101260.25
2022-10-16T12:53:01.026Z,101253.09
2022-10-16T12:55:34.078Z,101269.22
2022-10-16T12:58:15.772Z,101258.22
2022-10-16T13:00:47.232Z,101255.59
2022-10-16T13:03:47.760Z,101266.59
2022-10-16T13:06:26.465Z,101255.41
2022-10-16T13:09:14.279Z,101275.59
2022-10-16T13:11:57.497Z,101277.03
2022-10-16T13:14:50.610Z,101296.16
2022-10-16T13:17:24.648Z,101285.19
2022-10-16T13:20:06.775Z,101307.84
2022-10-16T13:22:41.237Z,101307.91
2022-10-16T13:25:25.809Z,101319.00
2022-10-16T13:27:57.292Z,101330.91
2022-10-16T13:30:30.589Z,101334.38
2022-10-16T13:33:03.047Z,101328.19
2022-10-16T13:35:33.265Z,101335.84
2022-10-16T13:38:13.214Z,101355.28
2022-10-16T13:40:52.306Z,101347.34
2022-10-16T13:43:21.523Z,101358.56
2022-10-16T13:46:00.976Z,101361.13
2022-10-16T13:48:28.480Z,101369.53
2022-10-16T13:51:08.319Z,101389.13
2022-10-16T13:53:37.317Z,101375.66
2022-10-16T13:56:09.676Z,101384.25
2022-10-16T13:58:39.776Z,101395.00
2022-10-16T14:01:17.601Z,101398.34
2022-10-16T14:03:46.255Z,101393.91
2022-10-16T14:06:19.690Z,101395.91
2022-10-16T14:08:52.149Z,101387.78
2022-10-16T14:11:26.433Z,101395.22
2022-10-16T14:13:55.125Z,101402.25
2022-10-16T14:16:25.166Z,101404.50
2022-10-16T14:18:59.538Z,101417.19
2022-10-16T14:21:27.872Z,101422.72
2022-10-16T14:23:56.650Z,101432.47
2022-10-16T14:26:28.363Z,101428.75
2022-10-16T14:29:12.473Z,101430.41
2022-10-16T14:31:40.747Z,101446.97
2022-10-16T14:34:28.236Z,101434.47
2022-10-16T14:37:01.887Z,101444.06
2022-10-16T14:39:29.574Z,101451.13
2022-10-16T14:42:00.137Z,101452.78
2022-10-16T14:44:34.283Z,101453.03
2022-10-16T14:47:11.535Z,101459.63
2022-10-16T14:49:39.045Z,101465.66
2022-10-16T14:52:12.118Z,101469.78
2022-10-16T14:54:40.242Z,101467.59
2022-10-16T14:57:21.464Z,101473.00
2022-10-16T14:59:52.018Z,101482.56
2022-10-16T15:02:27.303Z,101496.00
2022-10-16T15:04:54.891Z,101492.09
2022-10-16T15:07:32.516Z,101494.97
2022-10-16T15:10:00.076Z,101490.84
2022-10-16T15:12:28.958Z,101489.63
2022-10-16T15:14:56.493Z,101503.06
2022-10-16T15:17:24.400Z,101493.34
2022-10-16T15:19:52.408Z,101499.13
2022-10-16T15:22:20.094Z,101493.16
2022-10-16T15:24:47.666Z,101506.78
2022-10-16T15:27:15.197Z,101501.81
2022-10-16T15:29:44.090Z,101514.00
2022-10-16T15:32:12.678Z,101520.19
2022-10-16T15:34:40.202Z,101521.81
2022-10-16T15:37:07.735Z,101521.81
2022-10-16T15:39:39.080Z,101524.06
2022-10-16T15:42:08.987Z,101532.72
2022-10-16T15:44:36.498Z,101532.66
2022-10-16T15:47:05.370Z,101545.22
2022-10-16T15:49:32.905Z,101543.16
2022-10-16T15:52:00.495Z,101546.38
2022-10-16T15:54:28.006Z,101553.78
2022-10-16T15:56:55.545Z,101552.09
2022-10-16T15:59:23.421Z,101556.97
2022-10-16T16:01:50.975Z,101564.97
2022-10-16T16:04:45.090Z,101559.16
2022-10-16T16:07:08.246Z,101574.56
2022-10-16T16:09:35.863Z,101579.88
2022-10-16T16:12:03.449Z,101585.34
2022-10-16T16:14:31.083Z,101587.34
2022-10-16T16:16:59.167Z,101598.22
2022-10-16T16:19:28.119Z,101601.03
2022-10-16T16:21:55.687Z,101607.31
2022-10-16T16:24:23.342Z,101610.56
2022-10-16T16:26:50.931Z,101623.25
2022-10-16T16:29:18.553Z,101620.50
2022-10-16T16:31:47.955Z,101621.25
2022-10-16T16:34:15.814Z,101620.34
2022-10-16T16:36:44.754Z,101624.63
2022-10-16T16:39:12.553Z,101625.38
2022-10-16T16:41:40.138Z,101634.16
2022-10-16T16:44:09.593Z,101640.06
2022-10-16T16:46:37.285Z,101640.00
2022-10-16T16:49:05.382Z,101654.75
2022-10-16T16:51:35.773Z,101659.81
2022-10-16T16:54:08.441Z,101667.59
2022-10-16T16:56:36.478Z,101667.28
2022-10-16T16:59:04.826Z,101674.03
2022-10-16T17:01:32.865Z,101671.91
2022-10-16T17:04:03.079Z,101673.31
2022-10-16T17:06:31.415Z,101681.69
2022-10-16T17:08:59.691Z,101682.88
2022-10-16T17:11:29.033Z,101677.25
2022-10-16T17:13:57.877Z,101686.47
2022-10-16T17:16:27.788Z,101702.03
2022-10-16T17:18:55.389Z,101698.06
2022-10-16T17:21:23.348Z,101701.09
2022-10-16T17:23:53.594Z,101704.97
2022-10-16T17:26:21.196Z,101716.22
2022-10-16T17:28:53.114Z,101715.56
2022-10-16T17:31:22.505Z,101720.91
2022-10-16T17:33:51.491Z,101723.13
2022-10-16T17:36:19.511Z,101711.94
2022-10-16T17:38:47.220Z,101718.81
2022-10-16T17:41:16.514Z,101725.53
2022-10-16T17:43:44.382Z,101719.06
2022-10-16T17:46:14.734Z,101732.94
2022-10-16T17:48:45.319Z,101746.00
2022-10-16T17:51:15.169Z,101744.53
2022-10-16T17:53:43.383Z,101745.88
2022-10-16T17:56:12.373Z,101754.25
2022-10-16T17:58:40.611Z,101769.81
2022-10-16T18:01:14.923Z,101768.50
2022-10-16T18:03:42.718Z,101773.34
2022-10-16T18:06:10.279Z,101773.69
2022-10-16T18:08:37.828Z,101775.72
2022-10-16T18:11:06.077Z,101787.59
2022-10-16T18:13:33.880Z,101798.63
2022-10-16T18:16:01.925Z,101799.97
2022-10-16T18:18:30.882Z,101806.66
2022-10-16T18:20:59.702Z,101795.66
2022-10-16T18:23:28.194Z,101792.34
2022-10-16T18:25:56.756Z,101802.19
2022-10-16T18:28:24.463Z,101799.88
2022-10-16T18:30:58.074Z,101801.69
2022-10-16T18:33:25.821Z,101822.22
2022-10-16T18:35:54.861Z,101825.91
2022-10-16T18:38:22.687Z,101822.75
2022-10-16T18:40:50.225Z,101824.94
2022-10-16T18:43:18.578Z,101834.13
2022-10-16T18:45:55.598Z,101833.63
2022-10-16T18:48:23.145Z,101824.28
2022-10-16T18:50:50.758Z,101839.63
2022-10-16T18:53:20.388Z,101858.00
2022-10-16T18:55:52.899Z,101859.34
2022-10-16T18:58:20.504Z,101869.34
2022-10-16T19:00:48.087Z,101865.19
2022-10-16T19:03:15.634Z,101854.88
2022-10-16T19:05:46.245Z,101849.69
2022-10-16T19:08:14.222Z,101848.19
2022-10-16T19:10:46.305Z,101857.19
2022-10-16T19:13:13.839Z,101862.69
2022-10-16T19:15:49.830Z,101861.88
2022-10-16T19:18:27.079Z,101862.84
2022-10-16T19:20:54.929Z,101866.53
2022-10-16T19:23:22.935Z,101879.19
2022-10-16T19:25:52.103Z,101882.19
2022-10-16T19:28:19.667Z,101875.38
2022-10-16T19:30:48.414Z,101877.38
2022-10-16T19:33:15.972Z,101876.03
2022-10-16T19:35:43.866Z,101875.38
2022-10-16T19:38:11.414Z,101887.38
2022-10-16T19:40:38.941Z,101878.06
2022-10-16T19:43:08.075Z,101886.41
2022-10-16T19:45:35.609Z,101894.03
2022-10-16T19:48:03.289Z,101903.38
2022-10-16T19:50:30.823Z,101903.69
2022-10-16T19:52:58.337Z,101905.66
2022-10-16T19:55:26.327Z,101906.00
2022-10-16T19:57:53.851Z,101910.00
2022-10-16T20:00:22.739Z,101910.16
2022-10-16T20:02:50.267Z,101909.50
2022-10-16T20:05:17.835Z,101903.31
2022-10-16T20:07:45.340Z,101894.66
2022-10-16T20:10:12.878Z,101902.66
2022-10-16T20:12:40.798Z,101900.97
2022-10-16T20:15:09.554Z,101904.63
2022-10-16T20:17:38.426Z,101906.66
2022-10-16T20:20:06.629Z,101906.66
2022-10-16T20:22:34.171Z,101913.13
2022-10-16T20:25:01.714Z,101904.31
2022-10-16T20:27:29.761Z,101915.94
2022-10-16T20:29:57.642Z,101911.63
2022-10-16T20:32:25.219Z,101920.63
2022-10-16T20:34:54.106Z,101928.78
2022-10-16T20:37:21.624Z,101926.28
2022-10-16T20:39:49.152Z,101920.09
2022-10-16T20:42:16.661Z,101933.59
2022-10-16T20:44:45.820Z,101938.94
2022-10-16T20:47:15.548Z,101944.41
2022-10-16T20:49:43.090Z,101945.41
2022-10-16T20:52:12.029Z,101956.06
2022-10-16T20:54:39.887Z,101941.09
2022-10-16T20:57:07.422Z,101945.75
2022-10-16T20:59:35.030Z,101949.41
2022-10-16T21:02:02.654Z,101950.22
2022-10-16T21:04:30.247Z,101964.53
2022-10-16T21:06:57.806Z,101962.84
2022-10-16T21:09:26.715Z,101970.72
2022-10-16T21:11:54.249Z,101958.56
2022-10-16T21:14:22.062Z,101968.50
2022-10-16T21:16:49.591Z,101970.50
2022-10-16T21:19:17.135Z,101968.03
2022-10-16T21:21:44.645Z,101966.34
2022-10-16T21:24:15.151Z,101970.00
2022-10-16T21:26:46.271Z,101959.19
2022-10-16T21:29:14.297Z,101966.16
2022-10-16T21:31:42.457Z,101960.03
2022-10-16T21:34:10.108Z,101964.34
2022-10-16T21:36:39.946Z,101969.66
2022-10-16T21:39:09.644Z,101971.50
2022-10-16T21:41:38.220Z,101977.84
2022-10-16T21:44:08.145Z,101975.31
2022-10-16T21:46:37.503Z,101972.84
2022-10-16T21:49:07.669Z,101982.78
2022-10-16T21:51:38.121Z,101983.13
2022-10-16T21:54:08.214Z,101977.97
2022-10-16T21:56:35.807Z,101986.94
2022-10-16T21:59:03.578Z,101987.25
2022-10-16T22:01:32.624Z,101988.25
2022-10-16T22:04:00.218Z,101983.91
2022-10-16T22:06:29.581Z,101993.91
2022-10-16T22:09:00.370Z,101989.56
2022-10-16T22:11:31.228Z,101991.56
2022-10-16T22:13:58.793Z,101986.38
2022-10-16T22:16:27.788Z,101988.38
2022-10-16T22:18:59.474Z,101993.69
2022-10-16T22:21:29.049Z,102002.34
2022-10-16T22:23:56.982Z,102007.69
2022-10-16T22:26:24.509Z,102019.03
2022-10-16T22:28:52.086Z,102011.72
2022-10-16T22:31:21.166Z,101993.06
2022-10-16T22:33:48.902Z,101985.75
2022-10-16T22:36:18.105Z,101991.78
2022-10-16T22:38:45.634Z,101991.44
2022-10-16T22:41:14.851Z,101985.94
2022-10-16T22:43:44.770Z,101987.63
2022-10-16T22:46:14.529Z,101996.28
2022-10-16T22:48:42.812Z,101991.94
2022-10-16T22:51:16.522Z,102000.75
2022-10-16T22:53:47.085Z,102008.63
2022-10-16T22:56:15.958Z,102008.44
2022-10-16T22:58:43.714Z,101996.81
2022-10-16T23:01:12.921Z,101994.28
2022-10-16T23:03:40.661Z,101983.63
2022-10-16T23:06:08.221Z,101978.31
2022-10-16T23:08:35.793Z,101984.47
2022-10-16T23:11:07.990Z,101987.13
2022-10-16T23:13:37.650Z,101984.47
2022-10-16T23:16:06.435Z,101984.47
2022-10-16T23:18:35.275Z,101982.47
2022-10-16T23:21:05.906Z,101981.47
2022-10-16T23:23:34.689Z,101985.81
2022-10-16T23:26:02.742Z,101989.16
2022-10-16T23:28:32.237Z,101997.00
2022-10-16T23:30:59.991Z,102006.81
2022-10-16T23:33:27.510Z,101994.47
2022-10-16T23:35:55.047Z,101992.81
2022-10-16T23:38:22.571Z,101983.16
2022-10-16T23:40:50.139Z,101984.16
2022-10-16T23:43:17.669Z,101987.78
2022-10-16T23:45:46.545Z,101993.13
2022-10-16T23:48:14.155Z,101997.63
2022-10-16T23:50:41.730Z,102002.13
2022-10-16T23:53:10.192Z,102016.44
2022-10-16T23:55:38.180Z,102015.59
2022-10-16T23:58:05.715Z,102012.44
